createdAt,value
2019-05-19T00:00:54.273Z,15.32
2019-05-19T00:03:22.866Z,15.29
2019-05-19T00:05:51.494Z,15.25
2019-05-19T00:08:20.105Z,15.31
2019-05-19T00:10:48.870Z,15.20
2019-05-19T00:13:17.704Z,15.16
2019-05-19T00:15:46.441Z,15.02
2019-05-19T00:18:15.069Z,15.10
2019-05-19T00:20:44.558Z,15.23
2019-05-19T00:23:13.160Z,15.38
2019-05-19T00:25:41.798Z,15.38
2019-05-19T00:28:10.503Z,15.21
2019-05-19T00:30:39.116Z,15.25
2019-05-19T00:33:07.730Z,15.38
2019-05-19T00:35:36.421Z,15.50
2019-05-19T00:38:05.113Z,15.50
2019-05-19T00:40:33.734Z,15.46
2019-05-19T00:43:02.364Z,15.48
2019-05-19T00:45:31.078Z,15.48
2019-05-19T00:47:59.847Z,15.50
2019-05-19T00:50:28.609Z,15.41
2019-05-19T00:52:57.307Z,15.47
2019-05-19T00:55:26.010Z,15.64
2019-05-19T00:57:54.673Z,15.46
2019-05-19T01:00:23.423Z,15.46
2019-05-19T01:02:51.995Z,15.43
2019-05-19T01:05:20.942Z,15.40
2019-05-19T01:07:49.794Z,15.27
2019-05-19T01:10:18.767Z,15.32
2019-05-19T01:12:47.441Z,15.37
2019-05-19T01:15:16.291Z,15.39
2019-05-19T01:17:45.021Z,15.37
2019-05-19T01:20:13.880Z,15.24
2019-05-19T01:22:42.532Z,15.04
2019-05-19T01:25:11.479Z,14.95
2019-05-19T01:27:40.190Z,14.68
2019-05-19T01:30:10.398Z,14.67
2019-05-19T01:32:39.037Z,14.72
2019-05-19T01:35:07.907Z,14.54
2019-05-19T01:37:36.551Z,14.39
2019-05-19T01:40:05.533Z,14.40
2019-05-19T01:42:34.153Z,14.59
2019-05-19T01:45:02.840Z,14.62
2019-05-19T01:47:31.539Z,14.57
2019-05-19T01:50:17.132Z,14.57
2019-05-19T01:52:30.503Z,14.67
2019-05-19T01:54:59.140Z,14.67
2019-05-19T01:57:27.774Z,14.82
2019-05-19T01:59:56.386Z,14.85
2019-05-19T02:02:25.073Z,15.05
2019-05-19T02:04:53.693Z,15.08
2019-05-19T02:07:22.330Z,15.19
2019-05-19T02:09:50.934Z,15.11
2019-05-19T02:12:19.615Z,14.99
2019-05-19T02:14:48.234Z,14.82
2019-05-19T02:17:16.868Z,14.64
2019-05-19T02:19:45.527Z,14.58
2019-05-19T02:22:14.225Z,14.65
2019-05-19T02:24:42.903Z,14.59
2019-05-19T02:27:11.548Z,14.59
2019-05-19T02:29:40.158Z,14.73
2019-05-19T02:32:08.778Z,14.82
2019-05-19T02:34:37.400Z,14.69
2019-05-19T02:37:06.075Z,14.36
2019-05-19T02:39:34.693Z,14.46
2019-05-19T02:42:05.009Z,14.21
2019-05-19T02:44:34.457Z,14.22
2019-05-19T02:47:03.974Z,14.38
2019-05-19T02:49:34.239Z,14.34
2019-05-19T02:52:04.106Z,14.25
2019-05-19T02:54:34.162Z,14.14
2019-05-19T02:57:03.571Z,14.22
2019-05-19T02:59:32.258Z,14.19
2019-05-19T03:02:02.760Z,14.17
2019-05-19T03:04:31.577Z,13.92
2019-05-19T03:07:00.299Z,13.97
2019-05-19T03:09:28.925Z,14.11
2019-05-19T03:11:57.603Z,14.08
2019-05-19T03:14:26.381Z,14.23
2019-05-19T03:16:54.994Z,14.25
2019-05-19T03:19:23.722Z,14.08
2019-05-19T03:21:52.323Z,14.04
2019-05-19T03:24:21.015Z,13.88
2019-05-19T03:26:49.952Z,13.89
2019-05-19T03:29:22.171Z,13.94
2019-05-19T03:32:00.246Z,13.83
2019-05-19T03:34:28.869Z,13.87
2019-05-19T03:36:57.464Z,13.96
2019-05-19T03:39:26.116Z,14.06
2019-05-19T03:41:54.723Z,13.88
2019-05-19T03:44:23.360Z,13.83
2019-05-19T03:46:51.970Z,13.90
2019-05-19T03:49:20.740Z,14.01
2019-05-19T03:51:49.347Z,13.96
2019-05-19T03:54:17.975Z,14.15
2019-05-19T03:56:46.584Z,14.24
2019-05-19T03:59:15.203Z,14.00
2019-05-19T04:01:43.799Z,14.09
2019-05-19T04:04:12.411Z,13.96
2019-05-19T04:06:41.018Z,14.00
2019-05-19T04:09:09.646Z,13.98
2019-05-19T04:11:38.275Z,14.15
2019-05-19T04:14:06.914Z,14.10
2019-05-19T04:16:35.529Z,14.16
2019-05-19T04:19:04.206Z,14.20
2019-05-19T04:21:47.531Z,14.19
2019-05-19T04:24:03.195Z,14.22
2019-05-19T04:26:31.795Z,14.24
2019-05-19T04:29:00.461Z,14.26
2019-05-19T04:31:29.169Z,14.32
2019-05-19T04:33:57.809Z,14.35
2019-05-19T04:36:26.420Z,14.36
2019-05-19T04:38:55.095Z,14.33
2019-05-19T04:41:23.669Z,14.06
2019-05-19T04:43:52.275Z,13.91
2019-05-19T04:46:20.918Z,14.24
2019-05-19T04:48:49.532Z,14.23
2019-05-19T04:51:18.164Z,14.16
2019-05-19T04:53:46.769Z,14.30
2019-05-19T04:56:19.378Z,14.50
2019-05-19T04:58:45.811Z,14.60
2019-05-19T05:01:14.516Z,14.58
2019-05-19T05:03:43.132Z,14.65
2019-05-19T05:06:11.806Z,14.63
2019-05-19T05:08:40.440Z,14.67
2019-05-19T05:11:09.133Z,14.76
2019-05-19T05:13:37.754Z,14.69
2019-05-19T05:16:06.398Z,14.62
2019-05-19T05:18:35.043Z,14.64
2019-05-19T05:21:03.726Z,14.76
2019-05-19T05:23:32.345Z,14.82
2019-05-19T05:26:01.036Z,15.02
2019-05-19T05:28:29.643Z,15.02
2019-05-19T05:30:58.292Z,14.75
2019-05-19T05:33:26.922Z,14.72
2019-05-19T05:35:55.628Z,14.84
2019-05-19T05:38:24.268Z,14.82
2019-05-19T05:40:52.892Z,14.64
2019-05-19T05:43:21.496Z,14.85
2019-05-19T05:45:50.123Z,15.07
2019-05-19T05:48:18.735Z,15.19
2019-05-19T05:50:47.355Z,15.40
2019-05-19T05:53:15.975Z,15.47
2019-05-19T05:55:44.578Z,15.48
2019-05-19T05:58:13.543Z,15.35
2019-05-19T06:00:42.194Z,15.40
2019-05-19T06:03:10.979Z,15.49
2019-05-19T06:05:39.790Z,15.49
2019-05-19T06:08:08.496Z,15.14
2019-05-19T06:10:37.227Z,15.40
2019-05-19T06:13:05.889Z,15.16
2019-05-19T06:15:34.549Z,15.62
2019-05-19T06:18:03.276Z,15.62
2019-05-19T06:20:32.035Z,15.76
2019-05-19T06:23:00.660Z,15.80
2019-05-19T06:25:29.368Z,15.80
2019-05-19T06:27:58.041Z,15.91
2019-05-19T06:30:27.204Z,15.99
2019-05-19T06:32:56.931Z,15.99
2019-05-19T06:35:25.588Z,15.91
2019-05-19T06:37:54.250Z,16.16
2019-05-19T06:40:22.956Z,16.39
2019-05-19T06:42:51.593Z,16.42
2019-05-19T06:45:20.266Z,16.30
2019-05-19T06:47:54.813Z,16.30
2019-05-19T06:50:27.073Z,16.57
2019-05-19T06:53:12.920Z,16.73
2019-05-19T06:55:30.863Z,16.84
2019-05-19T06:58:00.537Z,17.06
2019-05-19T07:00:30.709Z,16.83
2019-05-19T07:02:59.648Z,16.79
2019-05-19T07:05:30.091Z,16.91
2019-05-19T07:08:01.964Z,16.86
2019-05-19T07:10:32.991Z,16.69
2019-05-19T07:13:06.714Z,16.89
2019-05-19T07:15:36.751Z,16.91
2019-05-19T07:18:11.408Z,16.88
2019-05-19T07:20:40.027Z,16.57
2019-05-19T07:23:08.657Z,16.51
2019-05-19T07:25:37.281Z,16.31
2019-05-19T07:28:05.974Z,16.61
2019-05-19T07:30:34.673Z,16.96
2019-05-19T07:33:03.342Z,16.70
2019-05-19T07:35:31.970Z,16.79
2019-05-19T07:38:00.700Z,16.58
2019-05-19T07:40:29.391Z,16.58
2019-05-19T07:42:58.038Z,16.79
2019-05-19T07:45:26.807Z,16.79
2019-05-19T07:47:55.416Z,16.84
2019-05-19T07:50:24.049Z,16.84
2019-05-19T07:52:52.706Z,17.00
2019-05-19T07:55:21.303Z,17.55
2019-05-19T07:57:49.983Z,17.55
2019-05-19T08:00:18.672Z,17.79
2019-05-19T08:02:47.356Z,17.99
2019-05-19T08:05:16.030Z,18.16
2019-05-19T08:07:44.721Z,18.38
2019-05-19T08:10:13.603Z,18.31
2019-05-19T08:12:42.232Z,18.31
2019-05-19T08:15:11.030Z,18.23
2019-05-19T08:17:39.905Z,18.48
2019-05-19T08:20:09.112Z,18.58
2019-05-19T08:22:37.727Z,18.91
2019-05-19T08:25:07.270Z,18.71
2019-05-19T08:27:35.925Z,18.71
2019-05-19T08:30:04.950Z,18.57
2019-05-19T08:32:33.573Z,18.46
2019-05-19T08:35:04.328Z,18.94
2019-05-19T08:37:32.687Z,18.94
2019-05-19T08:40:02.146Z,19.37
2019-05-19T08:42:32.940Z,19.37
2019-05-19T08:45:02.134Z,19.52
2019-05-19T08:47:30.799Z,19.67
2019-05-19T08:49:59.412Z,19.67
2019-05-19T08:52:28.037Z,19.49
2019-05-19T08:54:56.639Z,19.49
2019-05-19T08:57:25.349Z,19.58
2019-05-19T08:59:53.972Z,19.57
2019-05-19T09:02:42.379Z,19.11
2019-05-19T09:05:11.042Z,19.11
2019-05-19T09:07:39.689Z,19.41
2019-05-19T09:10:08.759Z,19.52
2019-05-19T09:12:37.798Z,19.52
2019-05-19T09:15:06.669Z,19.40
2019-05-19T09:17:35.315Z,19.76
2019-05-19T09:20:04.421Z,19.88
2019-05-19T09:22:33.111Z,19.88
2019-05-19T09:25:02.022Z,20.10
2019-05-19T09:27:30.950Z,20.01
2019-05-19T09:29:59.580Z,19.97
2019-05-19T09:32:28.204Z,19.97
2019-05-19T09:34:56.824Z,20.10
2019-05-19T09:37:25.541Z,19.92
2019-05-19T09:39:54.166Z,19.85
2019-05-19T09:42:22.846Z,19.93
2019-05-19T09:44:51.523Z,20.08
2019-05-19T09:47:20.454Z,20.10
2019-05-19T09:49:49.055Z,20.10
2019-05-19T09:52:17.777Z,20.32
2019-05-19T09:54:46.467Z,20.63
2019-05-19T09:57:15.080Z,20.63
2019-05-19T09:59:43.709Z,20.69
2019-05-19T10:02:12.532Z,20.77
2019-05-19T10:04:41.182Z,20.75
2019-05-19T10:07:10.126Z,20.79
2019-05-19T10:09:54.669Z,20.91
2019-05-19T10:12:23.277Z,20.91
2019-05-19T10:14:51.906Z,20.87
2019-05-19T10:17:20.661Z,21.14
2019-05-19T10:19:49.283Z,21.30
2019-05-19T10:22:17.901Z,21.42
2019-05-19T10:25:04.228Z,21.47
2019-05-19T10:27:16.897Z,21.60
2019-05-19T10:29:45.724Z,21.48
2019-05-19T10:32:14.532Z,21.63
2019-05-19T10:34:43.284Z,21.57
2019-05-19T10:37:11.884Z,21.59
2019-05-19T10:39:40.655Z,21.78
2019-05-19T10:42:09.330Z,21.91
2019-05-19T10:44:38.083Z,22.17
2019-05-19T10:48:20.337Z,22.25
2019-05-19T10:50:48.933Z,22.40
2019-05-19T10:53:17.609Z,22.45
2019-05-19T10:55:46.346Z,22.60
2019-05-19T10:58:14.970Z,22.59
2019-05-19T11:00:43.577Z,22.77
2019-05-19T11:03:12.169Z,22.71
2019-05-19T11:05:40.878Z,22.92
2019-05-19T11:08:09.459Z,23.17
2019-05-19T11:10:38.095Z,23.27
2019-05-19T11:13:06.680Z,23.28
2019-05-19T11:15:35.386Z,23.22
2019-05-19T11:18:06.495Z,23.27
2019-05-19T11:20:34.512Z,23.32
2019-05-19T11:23:03.123Z,23.28
2019-05-19T11:25:34.363Z,23.31
2019-05-19T11:28:02.212Z,23.31
2019-05-19T11:30:30.891Z,23.34
2019-05-19T11:32:59.492Z,23.26
2019-05-19T11:35:28.322Z,23.38
2019-05-19T11:37:57.076Z,23.45
2019-05-19T11:40:25.680Z,23.43
2019-05-19T11:42:54.345Z,23.47
2019-05-19T11:45:23.053Z,23.59
2019-05-19T11:47:51.689Z,23.76
2019-05-19T11:50:20.318Z,23.48
2019-05-19T11:52:48.976Z,23.54
2019-05-19T11:55:17.695Z,23.62
2019-05-19T11:57:46.285Z,23.61
2019-05-19T12:00:15.470Z,23.60
2019-05-19T12:02:44.205Z,23.36
2019-05-19T12:05:13.573Z,23.42
2019-05-19T12:07:42.391Z,23.42
2019-05-19T12:10:11.127Z,23.69
2019-05-19T12:12:39.787Z,23.78
2019-05-19T12:15:09.278Z,23.83
2019-05-19T12:17:37.897Z,23.81
2019-05-19T12:20:06.890Z,23.84
2019-05-19T12:22:35.487Z,23.72
2019-05-19T12:25:04.290Z,23.68
2019-05-19T12:27:32.920Z,23.52
2019-05-19T12:33:51.100Z,23.35
2019-05-19T12:36:10.199Z,23.52
2019-05-19T12:38:38.831Z,23.65
2019-05-19T12:41:07.531Z,23.74
2019-05-19T12:43:36.134Z,23.91
2019-05-19T12:46:13.587Z,23.97
2019-05-19T12:48:35.117Z,23.89
2019-05-19T12:51:03.788Z,24.03
2019-05-19T12:53:32.489Z,24.25
2019-05-19T12:56:01.465Z,24.29
2019-05-19T12:58:30.074Z,24.41
2019-05-19T13:00:58.807Z,24.40
2019-05-19T13:03:27.515Z,24.50
2019-05-19T13:05:56.345Z,24.50
2019-05-19T13:08:25.001Z,24.51
2019-05-19T13:10:53.809Z,24.67
2019-05-19T13:13:22.464Z,24.82
2019-05-19T13:15:51.230Z,24.81
2019-05-19T13:18:19.825Z,24.78
2019-05-19T13:20:48.613Z,24.97
2019-05-19T13:23:17.281Z,24.99
2019-05-19T13:25:46.302Z,25.01
2019-05-19T13:28:14.925Z,24.95
2019-05-19T13:30:43.832Z,24.80
2019-05-19T13:33:12.763Z,24.91
2019-05-19T13:35:41.502Z,24.95
2019-05-19T13:38:10.317Z,24.97
2019-05-19T13:40:40.013Z,24.99
2019-05-19T13:43:09.537Z,25.06
2019-05-19T13:45:47.654Z,25.01
2019-05-19T13:48:17.954Z,25.03
2019-05-19T13:50:49.637Z,25.08
2019-05-19T13:53:25.700Z,24.78
2019-05-19T13:57:11.074Z,24.79
2019-05-19T14:14:41.200Z,25.21
2019-05-19T14:17:44.829Z,25.54
2019-05-19T14:20:53.870Z,25.54
2019-05-19T14:27:30.548Z,25.54
2019-05-19T14:30:03.452Z,25.56
2019-05-19T14:33:01.012Z,25.74
2019-05-19T14:39:54.145Z,25.73
2019-05-19T14:42:57.948Z,25.69
2019-05-19T14:45:33.997Z,25.88
2019-05-19T14:48:13.174Z,25.76
2019-05-19T14:50:54.471Z,25.85
2019-05-19T14:56:58.791Z,25.84
2019-05-19T14:59:27.412Z,25.78
2019-05-19T15:01:56.302Z,25.83
2019-05-19T15:04:25.399Z,25.94
2019-05-19T15:06:54.091Z,25.92
2019-05-19T15:09:22.832Z,25.83
2019-05-19T15:11:52.717Z,25.60
2019-05-19T15:14:21.366Z,25.48
2019-05-19T15:16:51.064Z,25.47
2019-05-19T15:19:19.714Z,25.53
2019-05-19T15:21:48.372Z,25.50
2019-05-19T15:24:16.792Z,25.64
2019-05-19T15:26:45.409Z,25.86
2019-05-19T15:29:14.033Z,25.93
2019-05-19T15:31:42.691Z,25.97
2019-05-19T15:34:11.330Z,25.99
2019-05-19T15:36:40.263Z,26.06
2019-05-19T15:39:08.916Z,26.13
2019-05-19T15:41:37.550Z,26.15
2019-05-19T15:44:06.684Z,26.09
2019-05-19T15:46:35.378Z,26.17
2019-05-19T15:49:04.058Z,26.11
2019-05-19T15:51:37.415Z,26.10
2019-05-19T15:54:03.144Z,25.82
2019-05-19T15:56:32.060Z,25.52
2019-05-19T15:59:00.757Z,25.27
2019-05-19T16:01:30.656Z,25.20
2019-05-19T16:04:07.307Z,24.90
2019-05-19T16:06:39.048Z,24.72
2019-05-19T16:09:07.932Z,24.39
2019-05-19T16:12:02.399Z,24.20
2019-05-19T16:14:32.526Z,24.10
2019-05-19T16:17:01.184Z,23.61
2019-05-19T16:19:29.870Z,23.65
2019-05-19T16:21:58.520Z,23.49
2019-05-19T16:24:27.168Z,23.35
2019-05-19T16:26:55.771Z,23.02
2019-05-19T16:29:24.393Z,22.73
2019-05-19T16:31:53.014Z,22.61
2019-05-19T16:34:21.623Z,22.28
2019-05-19T16:36:50.311Z,22.44
2019-05-19T16:39:18.951Z,21.89
2019-05-19T16:41:47.629Z,21.64
2019-05-19T16:44:16.239Z,21.85
2019-05-19T16:46:44.834Z,21.83
2019-05-19T16:49:13.474Z,21.72
2019-05-19T16:51:42.163Z,21.55
2019-05-19T16:54:16.591Z,21.10
2019-05-19T16:56:57.623Z,20.54
2019-05-19T17:12:28.604Z,20.24
2019-05-19T17:15:00.503Z,20.15
2019-05-19T17:17:40.935Z,19.78
2019-05-19T17:20:14.767Z,19.44
2019-05-19T17:22:45.158Z,19.39
2019-05-19T17:25:21.082Z,19.39
2019-05-19T17:27:53.106Z,19.65
2019-05-19T17:30:22.478Z,19.80
2019-05-19T17:33:01.061Z,19.69
2019-05-19T17:35:34.642Z,19.79
2019-05-19T17:38:13.148Z,19.79
2019-05-19T17:40:43.610Z,19.44
2019-05-19T17:43:13.628Z,19.38
2019-05-19T17:45:55.113Z,19.38
2019-05-19T17:48:26.900Z,19.50
2019-05-19T17:51:18.691Z,19.76
2019-05-19T17:53:48.024Z,19.93
2019-05-19T17:56:22.786Z,19.68
2019-05-19T17:58:55.651Z,19.71
2019-05-19T18:01:33.516Z,19.72
2019-05-19T18:04:03.465Z,20.01
2019-05-19T18:06:34.511Z,20.01
2019-05-19T18:09:06.959Z,20.01
2019-05-19T18:11:40.250Z,20.10
2019-05-19T18:14:12.241Z,20.10
2019-05-19T18:16:45.831Z,20.11
2019-05-19T18:19:33.956Z,20.20
2019-05-19T18:22:32.748Z,20.16
2019-05-19T18:25:10.795Z,20.16
2019-05-19T18:28:14.140Z,20.16
2019-05-19T18:30:58.765Z,20.23
2019-05-19T18:34:03.714Z,20.14
2019-05-19T18:36:37.553Z,20.05
2019-05-19T18:39:12.358Z,19.87
2019-05-19T18:42:08.533Z,19.93
2019-05-19T18:44:42.473Z,19.84
2019-05-19T18:47:18.861Z,19.70
2019-05-19T18:49:59.810Z,19.70
2019-05-19T18:52:34.337Z,19.67
2019-05-19T18:55:17.264Z,19.71
2019-05-19T18:57:53.563Z,19.77
2019-05-19T19:00:51.230Z,19.68
2019-05-19T19:03:41.578Z,19.65
2019-05-19T19:06:28.546Z,19.51
2019-05-19T19:09:53.145Z,19.50
2019-05-19T19:12:35.342Z,19.18
2019-05-19T19:15:09.057Z,19.05
2019-05-19T19:17:46.091Z,19.05
2019-05-19T19:20:22.205Z,18.86
2019-05-19T19:23:15.252Z,18.09
2019-05-19T19:25:50.889Z,18.09
2019-05-19T19:28:51.509Z,17.93
2019-05-19T19:31:27.651Z,17.63
2019-05-19T19:34:05.055Z,17.79
2019-05-19T19:37:26.617Z,17.90
2019-05-19T19:40:00.347Z,17.51
2019-05-19T19:43:10.185Z,17.51
2019-05-19T19:46:09.469Z,17.33
2019-05-19T19:48:52.539Z,17.05
2019-05-19T19:51:22.012Z,17.05
2019-05-19T19:56:53.235Z,17.11
2019-05-19T19:59:31.924Z,17.11
2019-05-19T20:02:29.945Z,16.96
2019-05-19T20:05:32.143Z,17.10
2019-05-19T20:08:05.685Z,17.04
2019-05-19T20:10:55.500Z,17.05
2019-05-19T20:13:32.931Z,16.97
2019-05-19T20:16:08.135Z,16.92
2019-05-19T20:18:44.967Z,17.05
2019-05-19T20:21:37.583Z,17.12
2019-05-19T20:24:12.221Z,17.12
2019-05-19T20:30:35.221Z,16.93
2019-05-19T20:36:19.629Z,16.61
2019-05-19T20:39:00.990Z,16.55
2019-05-19T20:45:21.418Z,16.77
2019-05-19T20:47:53.468Z,16.72
2019-05-19T20:50:39.785Z,16.68
2019-05-19T20:53:10.577Z,16.45
2019-05-19T20:55:53.538Z,16.53
2019-05-19T20:58:31.123Z,16.48
2019-05-19T21:01:27.300Z,16.63
2019-05-19T21:04:04.796Z,16.63
2019-05-19T21:06:36.377Z,16.52
2019-05-19T21:09:35.227Z,16.52
2019-05-19T21:20:12.401Z,16.21
2019-05-19T21:22:55.886Z,16.11
2019-05-19T21:25:46.307Z,16.06
2019-05-19T21:28:21.210Z,16.06
2019-05-19T21:31:27.624Z,15.80
2019-05-19T21:34:28.880Z,15.84
2019-05-19T21:37:29.076Z,15.81
2019-05-19T21:40:15.803Z,15.85
2019-05-19T21:42:48.369Z,15.83
2019-05-19T21:45:25.471Z,15.77
2019-05-19T21:48:08.793Z,15.77
2019-05-19T21:50:46.429Z,15.65
2019-05-19T21:53:30.694Z,15.36
2019-05-19T21:56:10.190Z,15.29
2019-05-19T21:58:53.503Z,15.36
2019-05-19T22:01:30.324Z,15.47
2019-05-19T22:03:59.859Z,15.49
2019-05-19T22:06:40.660Z,15.45
2019-05-19T22:09:16.594Z,15.07
2019-05-19T22:11:50.416Z,15.16
2019-05-19T22:14:23.478Z,15.21
2019-05-19T22:16:53.497Z,15.19
2019-05-19T22:19:28.756Z,15.01
2019-05-19T22:22:05.021Z,14.84
2019-05-19T22:24:37.744Z,14.86
2019-05-19T22:27:11.998Z,14.94
2019-05-19T22:29:44.658Z,14.94
2019-05-19T22:32:26.478Z,15.00
2019-05-19T22:35:15.261Z,14.98
2019-05-19T22:40:49.432Z,14.87
2019-05-19T22:43:51.238Z,14.96
2019-05-19T22:46:41.482Z,14.74
2019-05-19T22:49:34.877Z,14.55
2019-05-19T22:52:33.435Z,14.51
2019-05-19T22:58:37.808Z,14.46
2019-05-19T23:01:06.534Z,14.11
2019-05-19T23:03:35.123Z,14.04
2019-05-19T23:06:04.024Z,14.01
2019-05-19T23:08:32.651Z,14.13
2019-05-19T23:11:01.114Z,14.20
2019-05-19T23:13:29.753Z,14.06
2019-05-19T23:15:58.390Z,14.03
2019-05-19T23:18:27.001Z,14.20
2019-05-19T23:20:55.709Z,14.26
2019-05-19T23:23:24.340Z,14.25
2019-05-19T23:25:53.021Z,14.19
2019-05-19T23:28:21.631Z,14.03
2019-05-19T23:30:50.234Z,13.90
2019-05-19T23:33:20.206Z,13.89
2019-05-19T23:35:48.906Z,13.99
2019-05-19T23:38:17.631Z,14.04
2019-05-19T23:40:46.257Z,14.07
2019-05-19T23:43:14.883Z,14.00
2019-05-19T23:52:52.168Z,14.19
2019-05-19T23:55:20.868Z,14.24
2019-05-19T23:57:49.488Z,14.21
